Normand Flipper — 9V6929 — position and weather

sailwx.info

Track history (hours):
 
Tides and Currents Weather Stations Pressure Air Temp Water Temp Dewpoint Dewpoint Depression Visibility Wind Speed Wind Dir Waves Ship Positions

Normand Flipper

Last reported at 2016-Feb-10 15:25 UTC. Time now 2016-Feb-11 19:15 UTC.
Position N 57°06' W 001°57'.

Length 89 m; draft 4.5 m.

Type: Other ship. MMSI: 566522000.

Date/timePositionNaut miles runAvg speedWind from/ knotsBaromVisibWave heightAir tempDewpointWater temp
2016-Feb-10 15:25N 57°06' W 001°57'5 5.6
2016-Feb-10 14:33N 57°08' W 002°05'0 0.0
2016-Feb-10 13:27N 57°08' W 002°05'0 0.0
2016-Feb-10 12:27N 57°08' W 002°05'0 0.0
2016-Feb-10 11:33N 57°08' W 002°05'1 1.3
2016-Feb-10 10:33N 57°09' W 002°03'  
2016-Feb-08 02:32N 57°08' W 001°55'5 5.2
2016-Feb-08 01:33N 57°08' W 002°05'0 0.0
2016-Feb-08 00:31N 57°08' W 002°05'0 0.0
2016-Feb-07 23:25N 57°08' W 002°05'0 0.0
2016-Feb-07 22:19N 57°08' W 002°05'0 0.0
2016-Feb-07 21:25N 57°08' W 002°05'0 0.0
2016-Feb-07 20:31N 57°08' W 002°05'0 0.0
2016-Feb-07 19:31N 57°08' W 002°05'0 0.0
2016-Feb-07 18:25N 57°08' W 002°05'0 0.0
2016-Feb-07 17:31N 57°08' W 002°05'0 0.0
2016-Feb-07 16:31N 57°08' W 002°05'0 0.0
2016-Feb-07 15:25N 57°08' W 002°05'0 0.0
2016-Feb-07 14:31N 57°08' W 002°05'0 0.0
2016-Feb-07 13:31N 57°08' W 002°05'0 0.0
2016-Feb-07 12:31N 57°08' W 002°05'0 0.0
2016-Feb-07 11:31N 57°08' W 002°05'0 0.0
2016-Feb-07 10:13N 57°08' W 002°05'0 0.0
2016-Feb-07 09:31N 57°08' W 002°05'1 0.9
2016-Feb-07 08:33N 57°09' W 002°03'4 3.7
2016-Feb-07 07:33N 57°10' W 001°57'  
2016-Feb-03 11:34N 57°10' W 001°55'5 5.3
2016-Feb-03 10:33N 57°08' W 002°05'0 0.0
2016-Feb-03 08:12N 57°08' W 002°05'0 0.0
2016-Feb-03 07:30N 57°08' W 002°05'0 0.0
2016-Feb-03 06:30N 57°08' W 002°05'0 0.0
2016-Feb-03 05:18N 57°08' W 002°05'0 0.0
2016-Feb-03 04:30N 57°08' W 002°05'0 0.0
2016-Feb-03 03:24N 57°08' W 002°05'0 0.0
2016-Feb-03 02:24N 57°08' W 002°05'0 0.0
2016-Feb-03 01:24N 57°08' W 002°05'0 0.0
2016-Feb-03 00:30N 57°08' W 002°05'0 0.0
2016-Feb-02 23:24N 57°08' W 002°05'0 0.0
2016-Feb-02 22:30N 57°08' W 002°05'0 0.0
2016-Feb-02 21:18N 57°08' W 002°05'0 0.0
2016-Feb-02 20:30N 57°08' W 002°05'0 0.0
2016-Feb-02 19:30N 57°08' W 002°05'0 0.0
2016-Feb-02 18:30N 57°08' W 002°05'0 0.0
2016-Feb-02 17:30N 57°08' W 002°05'0 0.0
2016-Feb-02 16:24N 57°08' W 002°05'0 0.0
2016-Feb-02 15:24N 57°08' W 002°05'0 0.0
2016-Feb-02 14:12N 57°08' W 002°05'0 0.0
2016-Feb-02 13:12N 57°08' W 002°05'0 0.0
2016-Feb-02 12:30N 57°08' W 002°05'0 0.0
2016-Feb-02 11:30N 57°08' W 002°05'0 0.0
2016-Feb-02 10:24N 57°08' W 002°05'0 0.0
2016-Feb-02 09:30N 57°08' W 002°05'0 0.0
2016-Feb-02 08:33N 57°08' W 002°05'0 0.0
2016-Feb-02 07:24N 57°08' W 002°05'0 0.0
2016-Feb-02 06:30N 57°08' W 002°05'0 0.0
2016-Feb-02 05:30N 57°08' W 002°05'0 0.0
2016-Feb-02 04:24N 57°08' W 002°05'0 0.0
2016-Feb-02 03:24N 57°08' W 002°05'0 0.0
2016-Feb-02 02:30N 57°08' W 002°05'0 0.0
2016-Feb-02 01:30N 57°08' W 002°05'0 0.0
2016-Feb-02 00:30N 57°08' W 002°05'0 0.0
2016-Feb-01 23:30N 57°08' W 002°05'0 0.0
2016-Feb-01 22:18N 57°08' W 002°05'0 0.1
2016-Feb-01 21:33N 57°08' W 002°05'0 0.0
2016-Feb-01 20:30N 57°08' W 002°05'1 1.3
2016-Feb-01 19:34N 57°09' W 002°03'3 2.6
2016-Feb-01 18:32N 57°10' W 001°58'2 1.8
2016-Feb-01 17:33N 57°11' W 001°56'  
Track history (hours):
 
Tides and Currents Weather Stations Pressure Air Temp Water Temp Dewpoint Dewpoint Depression Visibility Wind Speed Wind Dir Waves Ship Positions

Normand Flipper

Last reported at 2016-Feb-10 15:25 UTC. Time now 2016-Feb-11 19:15 UTC.
Position N 57°06' W 001°57'.

Length 89 m; draft 4.5 m.

Type: Other ship. MMSI: 566522000.

Date/timePositionNaut miles runAvg speedWind from/ knotsBaromVisibWave heightAir tempDewpointWater temp
2016-Feb-10 15:25N 57°06' W 001°57'5 5.6
2016-Feb-10 14:33N 57°08' W 002°05'0 0.0
2016-Feb-10 13:27N 57°08' W 002°05'0 0.0
2016-Feb-10 12:27N 57°08' W 002°05'0 0.0
2016-Feb-10 11:33N 57°08' W 002°05'1 1.3
2016-Feb-10 10:33N 57°09' W 002°03'  
2016-Feb-08 02:32N 57°08' W 001°55'5 5.2
2016-Feb-08 01:33N 57°08' W 002°05'0 0.0
2016-Feb-08 00:31N 57°08' W 002°05'0 0.0
2016-Feb-07 23:25N 57°08' W 002°05'0 0.0
2016-Feb-07 22:19N 57°08' W 002°05'0 0.0
2016-Feb-07 21:25N 57°08' W 002°05'0 0.0
2016-Feb-07 20:31N 57°08' W 002°05'0 0.0
2016-Feb-07 19:31N 57°08' W 002°05'0 0.0
2016-Feb-07 18:25N 57°08' W 002°05'0 0.0
2016-Feb-07 17:31N 57°08' W 002°05'0 0.0
2016-Feb-07 16:31N 57°08' W 002°05'0 0.0
2016-Feb-07 15:25N 57°08' W 002°05'0 0.0
2016-Feb-07 14:31N 57°08' W 002°05'0 0.0
2016-Feb-07 13:31N 57°08' W 002°05'0 0.0
2016-Feb-07 12:31N 57°08' W 002°05'0 0.0
2016-Feb-07 11:31N 57°08' W 002°05'0 0.0
2016-Feb-07 10:13N 57°08' W 002°05'0 0.0
2016-Feb-07 09:31N 57°08' W 002°05'1 0.9
2016-Feb-07 08:33N 57°09' W 002°03'4 3.7
2016-Feb-07 07:33N 57°10' W 001°57'  
2016-Feb-03 11:34N 57°10' W 001°55'5 5.3
2016-Feb-03 10:33N 57°08' W 002°05'0 0.0
2016-Feb-03 08:12N 57°08' W 002°05'0 0.0
2016-Feb-03 07:30N 57°08' W 002°05'0 0.0
2016-Feb-03 06:30N 57°08' W 002°05'0 0.0
2016-Feb-03 05:18N 57°08' W 002°05'0 0.0
2016-Feb-03 04:30N 57°08' W 002°05'0 0.0
2016-Feb-03 03:24N 57°08' W 002°05'0 0.0
2016-Feb-03 02:24N 57°08' W 002°05'0 0.0
2016-Feb-03 01:24N 57°08' W 002°05'0 0.0
2016-Feb-03 00:30N 57°08' W 002°05'0 0.0
2016-Feb-02 23:24N 57°08' W 002°05'0 0.0
2016-Feb-02 22:30N 57°08' W 002°05'0 0.0
2016-Feb-02 21:18N 57°08' W 002°05'0 0.0
2016-Feb-02 20:30N 57°08' W 002°05'0 0.0
2016-Feb-02 19:30N 57°08' W 002°05'0 0.0
2016-Feb-02 18:30N 57°08' W 002°05'0 0.0
2016-Feb-02 17:30N 57°08' W 002°05'0 0.0
2016-Feb-02 16:24N 57°08' W 002°05'0 0.0
2016-Feb-02 15:24N 57°08' W 002°05'0 0.0
2016-Feb-02 14:12N 57°08' W 002°05'0 0.0
2016-Feb-02 13:12N 57°08' W 002°05'0 0.0
2016-Feb-02 12:30N 57°08' W 002°05'0 0.0
2016-Feb-02 11:30N 57°08' W 002°05'0 0.0
2016-Feb-02 10:24N 57°08' W 002°05'0 0.0
2016-Feb-02 09:30N 57°08' W 002°05'0 0.0
2016-Feb-02 08:33N 57°08' W 002°05'0 0.0
2016-Feb-02 07:24N 57°08' W 002°05'0 0.0
2016-Feb-02 06:30N 57°08' W 002°05'0 0.0
2016-Feb-02 05:30N 57°08' W 002°05'0 0.0
2016-Feb-02 04:24N 57°08' W 002°05'0 0.0
2016-Feb-02 03:24N 57°08' W 002°05'0 0.0
2016-Feb-02 02:30N 57°08' W 002°05'0 0.0
2016-Feb-02 01:30N 57°08' W 002°05'0 0.0
2016-Feb-02 00:30N 57°08' W 002°05'0 0.0
2016-Feb-01 23:30N 57°08' W 002°05'0 0.0
2016-Feb-01 22:18N 57°08' W 002°05'0 0.1
2016-Feb-01 21:33N 57°08' W 002°05'0 0.0
2016-Feb-01 20:30N 57°08' W 002°05'1 1.3
2016-Feb-01 19:34N 57°09' W 002°03'3 2.6
2016-Feb-01 18:32N 57°10' W 001°58'2 1.8
2016-Feb-01 17:33N 57°11' W 001°56'  

Dump ship's entire track history